TAF KFMH
KFMH 270525Z 2706/2806 28016G28KT P6SM BKN025 FM270900 28017G28KT P6SM BKN070 FM271300 28018G30KT P6SM SKC FM280000 28012G22KT P6SM SKC=
METAR KFMH
WC KFMH
WS KFMH
WV KFMH